sensor_id;sensor_type;location;lat;lon;timestamp;P1;durP1;ratioP1;P2;durP2;ratioP2
10851;SDS011;5479;52.046;6.314;2024-02-26T00:00:13;5.47;;;4.00;;
10851;SDS011;5479;52.046;6.314;2024-02-26T00:02:42;5.50;;;3.60;;
10851;SDS011;5479;52.046;6.314;2024-02-26T00:05:09;5.40;;;3.80;;
10851;SDS011;5479;52.046;6.314;2024-02-26T00:07:38;5.60;;;3.80;;
10851;SDS011;5479;52.046;6.314;2024-02-26T00:10:06;6.53;;;3.93;;
10851;SDS011;5479;52.046;6.314;2024-02-26T00:12:34;5.70;;;3.90;;
10851;SDS011;5479;52.046;6.314;2024-02-26T00:15:02;6.03;;;4.20;;
10851;SDS011;5479;52.046;6.314;2024-02-26T00:17:30;5.93;;;3.63;;
10851;SDS011;5479;52.046;6.314;2024-02-26T00:19:57;5.63;;;4.00;;
10851;SDS011;5479;52.046;6.314;2024-02-26T00:22:27;5.57;;;3.90;;
10851;SDS011;5479;52.046;6.314;2024-02-26T00:24:56;6.37;;;3.87;;
10851;SDS011;5479;52.046;6.314;2024-02-26T00:27:23;5.50;;;3.90;;
10851;SDS011;5479;52.046;6.314;2024-02-26T00:29:51;5.63;;;3.73;;
10851;SDS011;5479;52.046;6.314;2024-02-26T00:32:19;5.93;;;3.70;;
10851;SDS011;5479;52.046;6.314;2024-02-26T00:34:46;5.33;;;3.60;;
10851;SDS011;5479;52.046;6.314;2024-02-26T00:37:14;5.47;;;3.60;;
10851;SDS011;5479;52.046;6.314;2024-02-26T00:39:42;4.90;;;3.40;;
10851;SDS011;5479;52.046;6.314;2024-02-26T00:42:10;5.40;;;3.50;;
10851;SDS011;5479;52.046;6.314;2024-02-26T00:44:37;5.77;;;3.63;;
10851;SDS011;5479;52.046;6.314;2024-02-26T00:47:05;6.13;;;3.67;;
10851;SDS011;5479;52.046;6.314;2024-02-26T00:49:33;5.47;;;3.67;;
10851;SDS011;5479;52.046;6.314;2024-02-26T00:52:01;5.30;;;3.50;;
10851;SDS011;5479;52.046;6.314;2024-02-26T00:54:28;6.50;;;4.03;;
10851;SDS011;5479;52.046;6.314;2024-02-26T00:56:56;6.70;;;3.80;;
10851;SDS011;5479;52.046;6.314;2024-02-26T00:59:25;5.40;;;3.70;;
10851;SDS011;5479;52.046;6.314;2024-02-26T01:01:53;5.40;;;3.63;;
10851;SDS011;5479;52.046;6.314;2024-02-26T01:04:20;4.73;;;3.60;;
10851;SDS011;5479;52.046;6.314;2024-02-26T01:06:48;5.50;;;3.70;;
10851;SDS011;5479;52.046;6.314;2024-02-26T01:09:16;5.13;;;3.53;;
10851;SDS011;5479;52.046;6.314;2024-02-26T01:11:44;4.50;;;3.20;;
10851;SDS011;5479;52.046;6.314;2024-02-26T01:14:13;5.00;;;3.33;;
10851;SDS011;5479;52.046;6.314;2024-02-26T01:16:42;5.37;;;3.70;;
10851;SDS011;5479;52.046;6.314;2024-02-26T01:19:10;5.80;;;3.77;;
10851;SDS011;5479;52.046;6.314;2024-02-26T01:21:37;5.37;;;3.33;;
10851;SDS011;5479;52.046;6.314;2024-02-26T01:24:05;6.37;;;3.70;;
10851;SDS011;5479;52.046;6.314;2024-02-26T01:26:33;5.10;;;3.80;;
10851;SDS011;5479;52.046;6.314;2024-02-26T01:29:01;5.87;;;3.60;;
10851;SDS011;5479;52.046;6.314;2024-02-26T01:31:28;5.83;;;3.60;;
10851;SDS011;5479;52.046;6.314;2024-02-26T01:33:57;7.10;;;3.77;;
10851;SDS011;5479;52.046;6.314;2024-02-26T01:36:25;5.27;;;3.67;;
10851;SDS011;5479;52.046;6.314;2024-02-26T01:38:52;5.37;;;3.57;;
10851;SDS011;5479;52.046;6.314;2024-02-26T01:41:20;5.00;;;3.50;;
10851;SDS011;5479;52.046;6.314;2024-02-26T01:43:48;6.13;;;3.70;;
10851;SDS011;5479;52.046;6.314;2024-02-26T01:46:15;6.13;;;3.93;;
10851;SDS011;5479;52.046;6.314;2024-02-26T01:48:43;5.37;;;3.83;;
10851;SDS011;5479;52.046;6.314;2024-02-26T01:51:12;6.50;;;3.67;;
10851;SDS011;5479;52.046;6.314;2024-02-26T01:53:41;4.80;;;3.60;;
10851;SDS011;5479;52.046;6.314;2024-02-26T01:56:09;4.90;;;3.47;;
10851;SDS011;5479;52.046;6.314;2024-02-26T01:58:37;5.63;;;3.63;;
10851;SDS011;5479;52.046;6.314;2024-02-26T02:01:04;4.90;;;3.50;;
10851;SDS011;5479;52.046;6.314;2024-02-26T02:03:32;5.63;;;4.00;;
10851;SDS011;5479;52.046;6.314;2024-02-26T02:06:00;5.90;;;3.97;;
10851;SDS011;5479;52.046;6.314;2024-02-26T02:08:30;5.47;;;3.70;;
10851;SDS011;5479;52.046;6.314;2024-02-26T02:10:57;7.50;;;3.67;;
10851;SDS011;5479;52.046;6.314;2024-02-26T02:13:25;6.83;;;3.70;;
10851;SDS011;5479;52.046;6.314;2024-02-26T02:15:53;5.00;;;3.77;;
10851;SDS011;5479;52.046;6.314;2024-02-26T02:18:21;5.87;;;3.60;;
10851;SDS011;5479;52.046;6.314;2024-02-26T02:20:50;5.10;;;3.70;;
10851;SDS011;5479;52.046;6.314;2024-02-26T02:23:17;5.50;;;3.70;;
10851;SDS011;5479;52.046;6.314;2024-02-26T02:25:45;5.20;;;3.63;;
10851;SDS011;5479;52.046;6.314;2024-02-26T02:28:12;5.20;;;3.50;;
10851;SDS011;5479;52.046;6.314;2024-02-26T02:30:40;5.60;;;3.70;;
10851;SDS011;5479;52.046;6.314;2024-02-26T02:33:08;5.93;;;3.60;;
10851;SDS011;5479;52.046;6.314;2024-02-26T02:35:35;5.60;;;3.40;;
10851;SDS011;5479;52.046;6.314;2024-02-26T02:38:04;6.60;;;3.80;;
10851;SDS011;5479;52.046;6.314;2024-02-26T02:40:32;5.53;;;3.50;;
10851;SDS011;5479;52.046;6.314;2024-02-26T02:43:00;6.03;;;3.50;;
10851;SDS011;5479;52.046;6.314;2024-02-26T02:45:28;5.27;;;3.57;;
10851;SDS011;5479;52.046;6.314;2024-02-26T02:47:56;5.30;;;3.80;;
10851;SDS011;5479;52.046;6.314;2024-02-26T02:50:23;5.83;;;3.73;;
10851;SDS011;5479;52.046;6.314;2024-02-26T02:52:51;5.30;;;3.77;;
10851;SDS011;5479;52.046;6.314;2024-02-26T02:55:20;5.83;;;3.83;;
10851;SDS011;5479;52.046;6.314;2024-02-26T02:57:48;5.50;;;3.73;;
10851;SDS011;5479;52.046;6.314;2024-02-26T03:00:16;6.17;;;3.73;;
10851;SDS011;5479;52.046;6.314;2024-02-26T03:02:43;6.20;;;4.37;;
10851;SDS011;5479;52.046;6.314;2024-02-26T03:05:11;5.17;;;3.80;;
10851;SDS011;5479;52.046;6.314;2024-02-26T03:07:39;5.90;;;3.97;;
10851;SDS011;5479;52.046;6.314;2024-02-26T03:10:07;5.93;;;3.77;;
10851;SDS011;5479;52.046;6.314;2024-02-26T03:12:36;6.60;;;3.83;;
10851;SDS011;5479;52.046;6.314;2024-02-26T03:15:03;6.90;;;4.37;;
10851;SDS011;5479;52.046;6.314;2024-02-26T03:17:32;7.13;;;4.40;;
10851;SDS011;5479;52.046;6.314;2024-02-26T03:20:00;6.13;;;4.23;;
10851;SDS011;5479;52.046;6.314;2024-02-26T03:22:29;5.77;;;4.20;;
10851;SDS011;5479;52.046;6.314;2024-02-26T03:24:57;6.73;;;4.70;;
10851;SDS011;5479;52.046;6.314;2024-02-26T03:27:25;5.73;;;4.07;;
10851;SDS011;5479;52.046;6.314;2024-02-26T03:29:54;6.00;;;4.13;;
10851;SDS011;5479;52.046;6.314;2024-02-26T03:32:21;6.30;;;4.40;;
10851;SDS011;5479;52.046;6.314;2024-02-26T03:34:49;5.83;;;4.20;;
10851;SDS011;5479;52.046;6.314;2024-02-26T03:37:20;5.50;;;4.17;;
10851;SDS011;5479;52.046;6.314;2024-02-26T03:39:48;6.57;;;4.37;;
10851;SDS011;5479;52.046;6.314;2024-02-26T03:42:15;6.03;;;4.47;;
10851;SDS011;5479;52.046;6.314;2024-02-26T03:44:43;6.33;;;4.50;;
10851;SDS011;5479;52.046;6.314;2024-02-26T03:47:12;6.10;;;4.20;;
10851;SDS011;5479;52.046;6.314;2024-02-26T03:49:40;6.27;;;4.40;;
10851;SDS011;5479;52.046;6.314;2024-02-26T03:52:08;7.10;;;4.60;;
10851;SDS011;5479;52.046;6.314;2024-02-26T03:54:35;7.07;;;4.60;;
10851;SDS011;5479;52.046;6.314;2024-02-26T03:57:03;6.53;;;4.37;;
10851;SDS011;5479;52.046;6.314;2024-02-26T03:59:31;6.50;;;4.33;;
10851;SDS011;5479;52.046;6.314;2024-02-26T04:01:58;5.70;;;4.30;;
10851;SDS011;5479;52.046;6.314;2024-02-26T04:04:29;5.70;;;4.17;;
10851;SDS011;5479;52.046;6.314;2024-02-26T04:06:57;5.80;;;4.57;;
10851;SDS011;5479;52.046;6.314;2024-02-26T04:09:24;5.37;;;4.07;;
10851;SDS011;5479;52.046;6.314;2024-02-26T04:11:52;5.97;;;3.97;;
10851;SDS011;5479;52.046;6.314;2024-02-26T04:14:20;5.43;;;3.90;;
10851;SDS011;5479;52.046;6.314;2024-02-26T04:16:48;6.47;;;4.43;;
10851;SDS011;5479;52.046;6.314;2024-02-26T04:19:17;5.50;;;4.00;;
10851;SDS011;5479;52.046;6.314;2024-02-26T04:21:46;6.47;;;4.30;;
10851;SDS011;5479;52.046;6.314;2024-02-26T04:24:14;6.53;;;4.10;;
10851;SDS011;5479;52.046;6.314;2024-02-26T04:26:42;5.67;;;4.07;;
10851;SDS011;5479;52.046;6.314;2024-02-26T04:29:09;6.30;;;4.10;;
10851;SDS011;5479;52.046;6.314;2024-02-26T04:31:37;6.37;;;3.93;;
10851;SDS011;5479;52.046;6.314;2024-02-26T04:34:05;6.67;;;4.07;;
10851;SDS011;5479;52.046;6.314;2024-02-26T04:36:33;6.33;;;3.67;;
10851;SDS011;5479;52.046;6.314;2024-02-26T04:39:02;5.77;;;4.00;;
10851;SDS011;5479;52.046;6.314;2024-02-26T04:41:30;5.37;;;3.67;;
10851;SDS011;5479;52.046;6.314;2024-02-26T04:43:57;5.50;;;3.83;;
10851;SDS011;5479;52.046;6.314;2024-02-26T04:46:25;5.67;;;3.63;;
10851;SDS011;5479;52.046;6.314;2024-02-26T04:48:54;6.40;;;3.80;;
10851;SDS011;5479;52.046;6.314;2024-02-26T04:51:22;5.87;;;3.90;;
10851;SDS011;5479;52.046;6.314;2024-02-26T04:53:49;4.87;;;3.40;;
10851;SDS011;5479;52.046;6.314;2024-02-26T04:56:18;5.37;;;3.80;;
10851;SDS011;5479;52.046;6.314;2024-02-26T04:58:46;5.47;;;3.90;;
10851;SDS011;5479;52.046;6.314;2024-02-26T05:01:14;5.90;;;4.07;;
10851;SDS011;5479;52.046;6.314;2024-02-26T05:03:43;5.90;;;3.90;;
10851;SDS011;5479;52.046;6.314;2024-02-26T05:06:10;7.53;;;4.10;;
10851;SDS011;5479;52.046;6.314;2024-02-26T05:08:39;6.20;;;3.93;;
10851;SDS011;5479;52.046;6.314;2024-02-26T05:11:06;5.00;;;3.73;;
10851;SDS011;5479;52.046;6.314;2024-02-26T05:13:35;5.90;;;4.00;;
10851;SDS011;5479;52.046;6.314;2024-02-26T05:16:03;6.53;;;4.43;;
10851;SDS011;5479;52.046;6.314;2024-02-26T05:18:31;5.70;;;4.20;;
10851;SDS011;5479;52.046;6.314;2024-02-26T05:20:59;6.30;;;4.60;;
10851;SDS011;5479;52.046;6.314;2024-02-26T05:23:27;6.10;;;4.20;;
10851;SDS011;5479;52.046;6.314;2024-02-26T05:25:55;7.80;;;5.13;;
10851;SDS011;5479;52.046;6.314;2024-02-26T05:28:22;6.10;;;4.60;;
10851;SDS011;5479;52.046;6.314;2024-02-26T05:30:53;7.50;;;5.00;;
10851;SDS011;5479;52.046;6.314;2024-02-26T05:33:21;7.23;;;5.13;;
10851;SDS011;5479;52.046;6.314;2024-02-26T05:35:49;7.27;;;5.17;;
10851;SDS011;5479;52.046;6.314;2024-02-26T05:38:17;6.97;;;5.27;;
10851;SDS011;5479;52.046;6.314;2024-02-26T05:40:45;7.33;;;5.27;;
10851;SDS011;5479;52.046;6.314;2024-02-26T05:43:12;9.03;;;5.40;;
10851;SDS011;5479;52.046;6.314;2024-02-26T05:45:41;6.90;;;5.13;;
10851;SDS011;5479;52.046;6.314;2024-02-26T05:48:10;7.57;;;5.23;;
10851;SDS011;5479;52.046;6.314;2024-02-26T05:50:38;7.03;;;4.93;;
10851;SDS011;5479;52.046;6.314;2024-02-26T05:53:05;7.27;;;5.50;;
10851;SDS011;5479;52.046;6.314;2024-02-26T05:55:39;7.50;;;5.10;;
10851;SDS011;5479;52.046;6.314;2024-02-26T05:58:07;6.97;;;5.33;;
10851;SDS011;5479;52.046;6.314;2024-02-26T06:00:35;6.30;;;4.53;;
10851;SDS011;5479;52.046;6.314;2024-02-26T06:03:02;6.70;;;5.30;;
10851;SDS011;5479;52.046;6.314;2024-02-26T06:05:31;7.50;;;4.80;;
10851;SDS011;5479;52.046;6.314;2024-02-26T06:07:59;7.40;;;5.13;;
10851;SDS011;5479;52.046;6.314;2024-02-26T06:10:27;6.73;;;5.07;;
10851;SDS011;5479;52.046;6.314;2024-02-26T06:12:54;6.87;;;4.60;;
10851;SDS011;5479;52.046;6.314;2024-02-26T06:15:22;7.00;;;5.40;;
10851;SDS011;5479;52.046;6.314;2024-02-26T06:17:50;6.83;;;4.80;;
10851;SDS011;5479;52.046;6.314;2024-02-26T06:20:17;5.90;;;4.57;;
10851;SDS011;5479;52.046;6.314;2024-02-26T06:22:46;6.27;;;4.33;;
10851;SDS011;5479;52.046;6.314;2024-02-26T06:25:14;6.43;;;4.67;;
10851;SDS011;5479;52.046;6.314;2024-02-26T06:27:42;5.63;;;4.00;;
10851;SDS011;5479;52.046;6.314;2024-02-26T06:30:10;6.50;;;4.47;;
10851;SDS011;5479;52.046;6.314;2024-02-26T06:32:37;6.50;;;4.60;;
10851;SDS011;5479;52.046;6.314;2024-02-26T06:35:05;5.90;;;4.37;;
10851;SDS011;5479;52.046;6.314;2024-02-26T06:37:35;6.63;;;4.40;;
10851;SDS011;5479;52.046;6.314;2024-02-26T06:40:05;6.70;;;4.70;;
10851;SDS011;5479;52.046;6.314;2024-02-26T06:42:33;6.03;;;4.40;;
10851;SDS011;5479;52.046;6.314;2024-02-26T06:45:00;7.27;;;4.67;;
10851;SDS011;5479;52.046;6.314;2024-02-26T06:47:30;6.63;;;4.50;;
10851;SDS011;5479;52.046;6.314;2024-02-26T06:49:58;5.80;;;4.33;;
10851;SDS011;5479;52.046;6.314;2024-02-26T06:52:27;7.00;;;4.90;;
10851;SDS011;5479;52.046;6.314;2024-02-26T06:54:54;5.87;;;4.50;;
10851;SDS011;5479;52.046;6.314;2024-02-26T06:57:23;6.40;;;4.60;;
10851;SDS011;5479;52.046;6.314;2024-02-26T06:59:52;6.70;;;4.13;;
10851;SDS011;5479;52.046;6.314;2024-02-26T07:02:19;8.60;;;4.30;;
10851;SDS011;5479;52.046;6.314;2024-02-26T07:04:47;6.83;;;4.37;;
10851;SDS011;5479;52.046;6.314;2024-02-26T07:07:15;6.00;;;4.40;;
10851;SDS011;5479;52.046;6.314;2024-02-26T07:09:45;6.40;;;4.70;;
10851;SDS011;5479;52.046;6.314;2024-02-26T07:12:12;6.43;;;4.37;;
10851;SDS011;5479;52.046;6.314;2024-02-26T07:14:43;6.33;;;4.27;;
10851;SDS011;5479;52.046;6.314;2024-02-26T07:17:12;7.27;;;4.47;;
10851;SDS011;5479;52.046;6.314;2024-02-26T07:19:39;6.13;;;4.80;;
10851;SDS011;5479;52.046;6.314;2024-02-26T07:22:07;5.83;;;4.47;;
10851;SDS011;5479;52.046;6.314;2024-02-26T07:24:36;6.83;;;4.47;;
10851;SDS011;5479;52.046;6.314;2024-02-26T07:27:03;6.67;;;4.60;;
10851;SDS011;5479;52.046;6.314;2024-02-26T07:29:31;6.60;;;4.83;;
10851;SDS011;5479;52.046;6.314;2024-02-26T07:32:01;7.00;;;4.90;;
10851;SDS011;5479;52.046;6.314;2024-02-26T07:34:29;6.77;;;4.90;;
10851;SDS011;5479;52.046;6.314;2024-02-26T07:36:57;7.13;;;5.23;;
10851;SDS011;5479;52.046;6.314;2024-02-26T07:39:25;7.07;;;5.40;;
10851;SDS011;5479;52.046;6.314;2024-02-26T07:41:52;7.30;;;5.23;;
10851;SDS011;5479;52.046;6.314;2024-02-26T07:44:20;7.47;;;5.40;;
10851;SDS011;5479;52.046;6.314;2024-02-26T07:46:48;8.10;;;6.37;;
10851;SDS011;5479;52.046;6.314;2024-02-26T07:49:17;7.77;;;6.10;;
10851;SDS011;5479;52.046;6.314;2024-02-26T07:51:44;7.83;;;6.30;;
10851;SDS011;5479;52.046;6.314;2024-02-26T07:54:12;10.13;;;7.20;;
10851;SDS011;5479;52.046;6.314;2024-02-26T07:56:39;8.57;;;6.70;;
10851;SDS011;5479;52.046;6.314;2024-02-26T07:59:07;7.87;;;6.53;;
10851;SDS011;5479;52.046;6.314;2024-02-26T08:01:36;8.53;;;7.27;;
10851;SDS011;5479;52.046;6.314;2024-02-26T08:04:07;10.70;;;7.70;;
10851;SDS011;5479;52.046;6.314;2024-02-26T08:06:36;9.23;;;7.10;;
10851;SDS011;5479;52.046;6.314;2024-02-26T08:09:04;9.23;;;7.37;;
10851;SDS011;5479;52.046;6.314;2024-02-26T08:11:33;9.37;;;7.70;;
10851;SDS011;5479;52.046;6.314;2024-02-26T08:14:00;10.17;;;8.00;;
10851;SDS011;5479;52.046;6.314;2024-02-26T08:16:29;10.07;;;8.10;;
10851;SDS011;5479;52.046;6.314;2024-02-26T08:18:57;10.83;;;8.50;;
10851;SDS011;5479;52.046;6.314;2024-02-26T08:21:25;11.23;;;8.17;;
10851;SDS011;5479;52.046;6.314;2024-02-26T08:23:54;10.03;;;8.33;;
10851;SDS011;5479;52.046;6.314;2024-02-26T08:26:22;10.10;;;8.10;;
10851;SDS011;5479;52.046;6.314;2024-02-26T08:28:50;11.03;;;8.40;;
10851;SDS011;5479;52.046;6.314;2024-02-26T08:31:19;12.37;;;8.80;;
10851;SDS011;5479;52.046;6.314;2024-02-26T08:33:46;11.77;;;9.53;;
10851;SDS011;5479;52.046;6.314;2024-02-26T08:36:14;11.80;;;8.83;;
10851;SDS011;5479;52.046;6.314;2024-02-26T08:38:42;11.70;;;9.67;;
10851;SDS011;5479;52.046;6.314;2024-02-26T08:41:11;11.40;;;8.80;;
10851;SDS011;5479;52.046;6.314;2024-02-26T08:43:39;12.10;;;8.80;;
10851;SDS011;5479;52.046;6.314;2024-02-26T08:46:08;10.67;;;8.30;;
10851;SDS011;5479;52.046;6.314;2024-02-26T08:48:36;10.93;;;8.83;;
10851;SDS011;5479;52.046;6.314;2024-02-26T08:51:04;10.57;;;8.57;;
10851;SDS011;5479;52.046;6.314;2024-02-26T08:53:32;12.50;;;9.13;;
10851;SDS011;5479;52.046;6.314;2024-02-26T08:56:00;10.93;;;8.70;;
10851;SDS011;5479;52.046;6.314;2024-02-26T08:58:29;11.90;;;9.17;;
10851;SDS011;5479;52.046;6.314;2024-02-26T09:00:57;10.87;;;8.63;;
10851;SDS011;5479;52.046;6.314;2024-02-26T09:03:25;10.77;;;8.57;;
10851;SDS011;5479;52.046;6.314;2024-02-26T09:05:52;11.07;;;8.33;;
10851;SDS011;5479;52.046;6.314;2024-02-26T09:08:20;11.03;;;8.40;;
10851;SDS011;5479;52.046;6.314;2024-02-26T09:10:49;10.40;;;8.10;;
10851;SDS011;5479;52.046;6.314;2024-02-26T09:13:16;11.13;;;8.30;;
10851;SDS011;5479;52.046;6.314;2024-02-26T09:15:46;11.07;;;8.57;;
10851;SDS011;5479;52.046;6.314;2024-02-26T09:18:14;11.37;;;8.20;;
10851;SDS011;5479;52.046;6.314;2024-02-26T09:20:42;10.27;;;8.30;;
10851;SDS011;5479;52.046;6.314;2024-02-26T09:23:09;10.80;;;8.20;;
10851;SDS011;5479;52.046;6.314;2024-02-26T09:25:37;11.07;;;8.33;;
10851;SDS011;5479;52.046;6.314;2024-02-26T09:28:05;10.77;;;8.17;;
10851;SDS011;5479;52.046;6.314;2024-02-26T09:30:32;10.93;;;8.03;;
10851;SDS011;5479;52.046;6.314;2024-02-26T09:33:02;10.00;;;7.87;;
10851;SDS011;5479;52.046;6.314;2024-02-26T09:35:30;12.40;;;8.93;;
10851;SDS011;5479;52.046;6.314;2024-02-26T09:37:57;12.27;;;8.67;;
10851;SDS011;5479;52.046;6.314;2024-02-26T09:40:25;11.67;;;8.10;;
10851;SDS011;5479;52.046;6.314;2024-02-26T09:42:56;12.57;;;7.70;;
10851;SDS011;5479;52.046;6.314;2024-02-26T09:45:26;12.23;;;8.53;;
10851;SDS011;5479;52.046;6.314;2024-02-26T09:47:55;12.57;;;8.77;;
10851;SDS011;5479;52.046;6.314;2024-02-26T09:50:24;11.67;;;7.80;;
10851;SDS011;5479;52.046;6.314;2024-02-26T09:52:52;11.10;;;8.00;;
10851;SDS011;5479;52.046;6.314;2024-02-26T09:55:21;11.33;;;8.70;;
10851;SDS011;5479;52.046;6.314;2024-02-26T09:57:49;13.37;;;9.27;;
10851;SDS011;5479;52.046;6.314;2024-02-26T10:00:19;13.20;;;9.40;;
10851;SDS011;5479;52.046;6.314;2024-02-26T10:02:48;12.23;;;8.73;;
10851;SDS011;5479;52.046;6.314;2024-02-26T10:05:16;12.90;;;9.50;;
10851;SDS011;5479;52.046;6.314;2024-02-26T10:07:46;13.03;;;9.77;;
10851;SDS011;5479;52.046;6.314;2024-02-26T10:10:13;12.17;;;9.27;;
10851;SDS011;5479;52.046;6.314;2024-02-26T10:12:41;14.87;;;9.73;;
10851;SDS011;5479;52.046;6.314;2024-02-26T10:15:09;14.97;;;9.97;;
10851;SDS011;5479;52.046;6.314;2024-02-26T10:17:37;13.70;;;9.73;;
10851;SDS011;5479;52.046;6.314;2024-02-26T10:20:14;15.20;;;10.87;;
10851;SDS011;5479;52.046;6.314;2024-02-26T10:22:44;14.63;;;10.83;;
10851;SDS011;5479;52.046;6.314;2024-02-26T10:25:13;13.90;;;9.80;;
10851;SDS011;5479;52.046;6.314;2024-02-26T10:27:41;14.10;;;10.03;;
10851;SDS011;5479;52.046;6.314;2024-02-26T10:30:16;16.90;;;11.33;;
10851;SDS011;5479;52.046;6.314;2024-02-26T10:32:44;15.67;;;10.70;;
10851;SDS011;5479;52.046;6.314;2024-02-26T10:35:12;15.33;;;11.33;;
10851;SDS011;5479;52.046;6.314;2024-02-26T10:37:40;14.73;;;10.43;;
10851;SDS011;5479;52.046;6.314;2024-02-26T10:40:10;16.60;;;11.53;;
10851;SDS011;5479;52.046;6.314;2024-02-26T10:42:39;15.57;;;10.67;;
10851;SDS011;5479;52.046;6.314;2024-02-26T10:45:07;15.10;;;11.43;;
10851;SDS011;5479;52.046;6.314;2024-02-26T10:47:36;15.90;;;11.60;;
10851;SDS011;5479;52.046;6.314;2024-02-26T10:50:04;15.37;;;10.90;;
10851;SDS011;5479;52.046;6.314;2024-02-26T10:52:35;15.50;;;11.13;;
10851;SDS011;5479;52.046;6.314;2024-02-26T10:55:04;14.87;;;11.50;;
10851;SDS011;5479;52.046;6.314;2024-02-26T10:57:33;16.17;;;11.83;;
10851;SDS011;5479;52.046;6.314;2024-02-26T11:00:05;15.10;;;11.23;;
10851;SDS011;5479;52.046;6.314;2024-02-26T11:02:33;15.40;;;11.27;;
10851;SDS011;5479;52.046;6.314;2024-02-26T11:05:01;17.10;;;11.67;;
10851;SDS011;5479;52.046;6.314;2024-02-26T11:07:30;16.07;;;11.97;;
10851;SDS011;5479;52.046;6.314;2024-02-26T11:09:58;16.73;;;11.50;;
10851;SDS011;5479;52.046;6.314;2024-02-26T11:12:27;16.73;;;12.03;;
10851;SDS011;5479;52.046;6.314;2024-02-26T11:14:55;15.23;;;11.57;;
10851;SDS011;5479;52.046;6.314;2024-02-26T11:17:26;15.20;;;11.47;;
10851;SDS011;5479;52.046;6.314;2024-02-26T11:19:55;13.47;;;10.00;;
10851;SDS011;5479;52.046;6.314;2024-02-26T11:22:24;15.17;;;10.67;;
10851;SDS011;5479;52.046;6.314;2024-02-26T11:24:52;14.60;;;10.33;;
10851;SDS011;5479;52.046;6.314;2024-02-26T11:27:21;15.60;;;10.80;;
10851;SDS011;5479;52.046;6.314;2024-02-26T11:29:52;15.37;;;10.57;;
10851;SDS011;5479;52.046;6.314;2024-02-26T11:32:20;14.80;;;10.37;;
10851;SDS011;5479;52.046;6.314;2024-02-26T11:34:49;13.77;;;10.00;;
10851;SDS011;5479;52.046;6.314;2024-02-26T11:37:17;13.40;;;9.50;;
10851;SDS011;5479;52.046;6.314;2024-02-26T11:39:45;12.50;;;9.70;;
10851;SDS011;5479;52.046;6.314;2024-02-26T11:42:14;13.50;;;9.73;;
10851;SDS011;5479;52.046;6.314;2024-02-26T11:44:41;11.80;;;9.20;;
10851;SDS011;5479;52.046;6.314;2024-02-26T11:47:10;12.70;;;9.00;;
10851;SDS011;5479;52.046;6.314;2024-02-26T11:49:38;13.07;;;9.30;;
10851;SDS011;5479;52.046;6.314;2024-02-26T11:52:08;12.53;;;8.97;;
10851;SDS011;5479;52.046;6.314;2024-02-26T11:54:37;10.10;;;7.30;;
10851;SDS011;5479;52.046;6.314;2024-02-26T11:57:04;11.17;;;8.23;;
10851;SDS011;5479;52.046;6.314;2024-02-26T11:59:38;11.27;;;8.27;;
10851;SDS011;5479;52.046;6.314;2024-02-26T12:02:07;10.10;;;7.47;;
10851;SDS011;5479;52.046;6.314;2024-02-26T12:04:35;10.83;;;8.00;;
10851;SDS011;5479;52.046;6.314;2024-02-26T12:07:03;10.63;;;8.00;;
10851;SDS011;5479;52.046;6.314;2024-02-26T12:09:37;10.47;;;7.80;;
10851;SDS011;5479;52.046;6.314;2024-02-26T12:12:06;10.40;;;7.67;;
10851;SDS011;5479;52.046;6.314;2024-02-26T12:14:33;11.63;;;8.17;;
10851;SDS011;5479;52.046;6.314;2024-02-26T12:17:01;9.77;;;7.00;;
10851;SDS011;5479;52.046;6.314;2024-02-26T12:19:30;10.47;;;7.07;;
10851;SDS011;5479;52.046;6.314;2024-02-26T12:21:58;9.03;;;6.70;;
10851;SDS011;5479;52.046;6.314;2024-02-26T12:24:25;9.97;;;7.13;;
10851;SDS011;5479;52.046;6.314;2024-02-26T12:26:56;11.37;;;7.10;;
10851;SDS011;5479;52.046;6.314;2024-02-26T12:29:24;10.23;;;6.47;;
10851;SDS011;5479;52.046;6.314;2024-02-26T12:31:52;10.60;;;7.13;;
10851;SDS011;5479;52.046;6.314;2024-02-26T12:34:19;8.57;;;6.37;;
10851;SDS011;5479;52.046;6.314;2024-02-26T12:36:47;9.43;;;6.37;;
10851;SDS011;5479;52.046;6.314;2024-02-26T12:39:15;9.00;;;6.17;;
10851;SDS011;5479;52.046;6.314;2024-02-26T12:41:43;9.40;;;6.53;;
10851;SDS011;5479;52.046;6.314;2024-02-26T12:44:17;9.10;;;6.30;;
10851;SDS011;5479;52.046;6.314;2024-02-26T12:46:44;9.20;;;6.13;;
10851;SDS011;5479;52.046;6.314;2024-02-26T12:49:14;8.90;;;6.00;;
10851;SDS011;5479;52.046;6.314;2024-02-26T12:51:43;8.23;;;6.10;;
10851;SDS011;5479;52.046;6.314;2024-02-26T12:54:11;8.47;;;6.07;;
10851;SDS011;5479;52.046;6.314;2024-02-26T12:56:39;8.23;;;5.80;;
10851;SDS011;5479;52.046;6.314;2024-02-26T12:59:08;8.57;;;6.33;;
10851;SDS011;5479;52.046;6.314;2024-02-26T13:01:37;8.37;;;5.97;;
10851;SDS011;5479;52.046;6.314;2024-02-26T13:04:06;9.67;;;6.80;;
10851;SDS011;5479;52.046;6.314;2024-02-26T13:06:34;9.97;;;7.17;;
10851;SDS011;5479;52.046;6.314;2024-02-26T13:09:02;9.77;;;6.90;;
10851;SDS011;5479;52.046;6.314;2024-02-26T13:11:30;10.47;;;7.57;;
10851;SDS011;5479;52.046;6.314;2024-02-26T13:13:59;10.33;;;7.20;;
10851;SDS011;5479;52.046;6.314;2024-02-26T13:16:26;9.30;;;6.73;;
10851;SDS011;5479;52.046;6.314;2024-02-26T13:18:55;9.97;;;6.93;;
10851;SDS011;5479;52.046;6.314;2024-02-26T13:21:23;10.53;;;7.60;;
10851;SDS011;5479;52.046;6.314;2024-02-26T13:23:52;8.90;;;6.53;;
10851;SDS011;5479;52.046;6.314;2024-02-26T13:26:22;9.40;;;7.03;;
10851;SDS011;5479;52.046;6.314;2024-02-26T13:28:58;10.67;;;7.70;;
10851;SDS011;5479;52.046;6.314;2024-02-26T13:31:26;9.30;;;7.20;;
10851;SDS011;5479;52.046;6.314;2024-02-26T13:33:57;10.30;;;7.57;;
10851;SDS011;5479;52.046;6.314;2024-02-26T13:36:25;9.87;;;6.90;;
10851;SDS011;5479;52.046;6.314;2024-02-26T13:38:53;9.30;;;6.87;;
10851;SDS011;5479;52.046;6.314;2024-02-26T13:41:22;10.73;;;7.03;;
10851;SDS011;5479;52.046;6.314;2024-02-26T13:43:50;9.40;;;7.00;;
10851;SDS011;5479;52.046;6.314;2024-02-26T13:46:18;9.53;;;7.07;;
10851;SDS011;5479;52.046;6.314;2024-02-26T13:48:46;10.13;;;7.33;;
10851;SDS011;5479;52.046;6.314;2024-02-26T13:51:15;10.80;;;7.07;;
10851;SDS011;5479;52.046;6.314;2024-02-26T13:53:43;9.50;;;7.23;;
10851;SDS011;5479;52.046;6.314;2024-02-26T13:56:11;10.33;;;7.37;;
10851;SDS011;5479;52.046;6.314;2024-02-26T13:58:39;10.57;;;7.40;;
10851;SDS011;5479;52.046;6.314;2024-02-26T14:01:07;9.50;;;6.90;;
10851;SDS011;5479;52.046;6.314;2024-02-26T14:03:35;9.50;;;7.13;;
10851;SDS011;5479;52.046;6.314;2024-02-26T14:06:03;8.23;;;6.67;;
10851;SDS011;5479;52.046;6.314;2024-02-26T14:08:32;10.27;;;6.97;;
10851;SDS011;5479;52.046;6.314;2024-02-26T14:11:00;9.50;;;6.90;;
10851;SDS011;5479;52.046;6.314;2024-02-26T14:13:28;8.80;;;6.63;;
10851;SDS011;5479;52.046;6.314;2024-02-26T14:15:55;8.87;;;7.00;;
10851;SDS011;5479;52.046;6.314;2024-02-26T14:18:23;9.87;;;6.70;;
10851;SDS011;5479;52.046;6.314;2024-02-26T14:20:51;9.87;;;7.10;;
10851;SDS011;5479;52.046;6.314;2024-02-26T14:23:18;9.30;;;6.83;;
10851;SDS011;5479;52.046;6.314;2024-02-26T14:25:47;9.17;;;6.40;;
10851;SDS011;5479;52.046;6.314;2024-02-26T14:28:15;8.87;;;6.67;;
10851;SDS011;5479;52.046;6.314;2024-02-26T14:30:43;9.77;;;6.53;;
10851;SDS011;5479;52.046;6.314;2024-02-26T14:33:11;8.80;;;6.50;;
10851;SDS011;5479;52.046;6.314;2024-02-26T14:35:38;8.70;;;6.20;;
10851;SDS011;5479;52.046;6.314;2024-02-26T14:38:06;9.33;;;6.73;;
10851;SDS011;5479;52.046;6.314;2024-02-26T14:40:33;10.33;;;6.27;;
10851;SDS011;5479;52.046;6.314;2024-02-26T14:43:02;8.97;;;6.77;;
10851;SDS011;5479;52.046;6.314;2024-02-26T14:45:31;10.33;;;6.93;;
10851;SDS011;5479;52.046;6.314;2024-02-26T14:47:59;8.90;;;6.23;;
10851;SDS011;5479;52.046;6.314;2024-02-26T14:50:26;8.70;;;6.40;;
10851;SDS011;5479;52.046;6.314;2024-02-26T14:52:54;9.10;;;7.00;;
10851;SDS011;5479;52.046;6.314;2024-02-26T14:55:21;9.10;;;7.00;;
10851;SDS011;5479;52.046;6.314;2024-02-26T14:57:49;9.50;;;6.93;;
10851;SDS011;5479;52.046;6.314;2024-02-26T15:00:19;8.97;;;6.50;;